Time;durP1;ratioP1;P1;durP2;ratioP2;P2;SDS_P1;SDS_P2;PMS_P1;PMS_P2;Temp;Humidity;BMP_temperature;BMP_pressure;BME280_temperature;BME280_humidity;BME280_pressure;Samples;Min_cycle;Max_cycle;Signal;HPM_P1;HPM_P2
2022/03/08 00:01:44;;;;;;;9.43;6.38;;;14.20;28.10;;;;;;5149921;27;46912;-14
2022/03/08 00:04:11;;;;;;;6.38;5.78;;;14.20;28.10;;;;;;5149937;27;46899;-20
2022/03/08 00:06:39;;;;;;;6.80;6.10;;;14.20;28.10;;;;;;5150128;27;48825;-22
2022/03/08 00:09:06;;;;;;;6.32;5.72;;;14.20;28.20;;;;;;5149765;27;46997;-21
2022/03/08 00:11:32;;;;;;;6.75;6.03;;;14.20;28.20;;;;;;5150099;27;46790;-21
2022/03/08 00:13:59;;;;;;;6.55;5.90;;;14.20;28.20;;;;;;5149839;27;47235;-21
2022/03/08 00:16:26;;;;;;;6.20;5.60;;;14.10;28.10;;;;;;5149969;27;47117;-20
2022/03/08 00:18:52;;;;;;;8.05;6.50;;;14.10;28.10;;;;;;5149796;27;46967;-21
2022/03/08 00:21:19;;;;;;;7.38;6.13;;;14.10;28.20;;;;;;5149873;27;46879;-20
2022/03/08 00:23:48;;;;;;;7.60;6.43;;;14.10;28.20;;;;;;5149935;27;46916;-21
2022/03/08 00:26:15;;;;;;;6.95;6.25;;;14.00;28.20;;;;;;5149708;27;47127;-20
2022/03/08 00:28:42;;;;;;;6.03;5.45;;;14.00;28.20;;;;;;5149675;27;47427;-20
2022/03/08 00:31:09;;;;;;;5.93;5.38;;;14.00;28.20;;;;;;5149278;27;46780;-15
2022/03/08 00:33:35;;;;;;;6.53;5.93;;;14.00;28.30;;;;;;5149169;27;46876;-14
2022/03/08 00:36:03;;;;;;;7.15;6.30;;;14.00;28.30;;;;;;5149452;27;47877;-15
2022/03/08 00:38:29;;;;;;;6.72;6.00;;;13.90;28.30;;;;;;5149356;27;46871;-21
2022/03/08 00:40:57;;;;;;;6.95;6.22;;;13.90;28.30;;;;;;5149525;27;46857;-14
2022/03/08 00:43:24;;;;;;;7.05;5.95;;;13.90;28.40;;;;;;5149877;27;46823;-21
2022/03/08 00:45:51;;;;;;;6.68;5.85;;;13.80;28.30;;;;;;5149425;27;48091;-20
2022/03/08 00:48:17;;;;;;;7.40;6.30;;;13.80;28.40;;;;;;5149445;27;46899;-21
2022/03/08 00:50:44;;;;;;;7.35;6.65;;;13.80;28.40;;;;;;5148741;27;47010;-20
2022/03/08 00:53:11;;;;;;;7.22;6.13;;;13.80;28.40;;;;;;5149621;27;46899;-14
2022/03/08 00:55:37;;;;;;;6.80;5.93;;;13.80;28.50;;;;;;5148871;27;47824;-15
2022/03/08 00:58:06;;;;;;;7.95;6.93;;;13.70;28.40;;;;;;5149167;27;46828;-15
2022/03/08 01:00:34;;;;;;;6.75;6.03;;;13.70;28.50;;;;;;5148896;27;46867;-21
2022/03/08 01:03:00;;;;;;;7.32;5.78;;;13.70;28.50;;;;;;5149579;27;46935;-21
2022/03/08 01:05:28;;;;;;;7.40;5.70;;;13.70;28.50;;;;;;5148957;27;48828;-21
2022/03/08 01:07:55;;;;;;;7.20;6.50;;;13.70;28.50;;;;;;5149175;27;47188;-21
2022/03/08 01:10:22;;;;;;;6.97;6.23;;;13.70;28.60;;;;;;5148557;27;46991;-22
2022/03/08 01:12:49;;;;;;;6.40;5.80;;;13.60;28.50;;;;;;5149228;27;46856;-21
2022/03/08 01:15:18;;;;;;;7.03;6.30;;;13.60;28.60;;;;;;5148705;27;46898;-21
2022/03/08 01:17:45;;;;;;;6.75;6.03;;;13.60;28.60;;;;;;5148784;27;46817;-14
2022/03/08 01:20:12;;;;;;;6.38;5.55;;;13.60;28.60;;;;;;5148802;27;46950;-14
2022/03/08 01:22:39;;;;;;;6.38;5.78;;;13.60;28.60;;;;;;5149162;27;46931;-15
2022/03/08 01:25:06;;;;;;;6.77;6.07;;;13.60;28.70;;;;;;5148626;27;48852;-14
2022/03/08 01:27:33;;;;;;;7.27;6.57;;;13.60;28.70;;;;;;5148716;27;47246;-15
2022/03/08 01:30:00;;;;;;;6.60;5.67;;;13.70;28.80;;;;;;5148102;27;46996;-20
2022/03/08 01:32:28;;;;;;;6.80;6.10;;;13.70;28.70;;;;;;5148789;27;46914;-15
2022/03/08 01:34:54;;;;;;;5.90;5.40;;;13.90;28.60;;;;;;5148527;27;48919;-14
2022/03/08 01:37:21;;;;;;;6.78;5.63;;;14.00;28.50;;;;;;5148579;27;46911;-13
2022/03/08 01:39:48;;;;;;;7.47;5.70;;;14.10;28.30;;;;;;5148420;27;46821;-21
2022/03/08 01:42:17;;;;;;;6.38;5.50;;;14.20;28.20;;;;;;5148823;27;47137;-20
2022/03/08 01:44:44;;;;;;;6.57;5.97;;;14.30;28.10;;;;;;5147747;27;48197;-15
2022/03/08 01:47:13;;;;;;;6.47;5.88;;;14.40;28.00;;;;;;5148140;27;46900;-15
2022/03/08 01:49:41;;;;;;;6.70;5.95;;;14.40;27.90;;;;;;5148172;27;46891;-20
2022/03/08 01:52:08;;;;;;;6.38;5.82;;;14.50;28.00;;;;;;5148647;27;47269;-20
2022/03/08 01:54:35;;;;;;;6.40;5.68;;;14.50;27.90;;;;;;5147663;27;49058;-21
2022/03/08 01:57:01;;;;;;;6.05;5.20;;;14.50;27.80;;;;;;5148243;27;46885;-21
2022/03/08 01:59:28;;;;;;;6.07;5.47;;;14.60;27.80;;;;;;5148038;27;46800;-21
2022/03/08 02:01:55;;;;;;;6.40;5.80;;;14.60;27.80;;;;;;5148407;27;46909;-15
2022/03/08 02:04:21;;;;;;;6.53;5.93;;;14.50;27.80;;;;;;5148046;27;48864;-14
2022/03/08 02:06:49;;;;;;;5.57;5.07;;;14.60;27.80;;;;;;5148063;27;46938;-21
2022/03/08 02:09:16;;;;;;;5.95;5.35;;;14.50;27.80;;;;;;5147966;27;46917;-14
2022/03/08 02:11:46;;;;;;;6.03;5.43;;;14.50;27.80;;;;;;5148143;27;46973;-15
2022/03/08 02:17:34;;;;;;;6.30;5.32;;;14.50;27.80;;;;;;5148140;27;47020;-14
2022/03/08 02:20:01;;;;;;;5.93;5.43;;;14.40;27.80;;;;;;5148057;27;46878;-14
2022/03/08 02:22:29;;;;;;;6.20;5.60;;;14.40;27.90;;;;;;5147934;27;46894;-21
2022/03/08 02:24:56;;;;;;;5.95;5.32;;;14.40;27.90;;;;;;5147614;27;46896;-21
2022/03/08 02:27:23;;;;;;;5.90;5.30;;;14.40;28.00;;;;;;5147841;27;46952;-15
2022/03/08 02:29:49;;;;;;;6.18;5.57;;;14.40;28.00;;;;;;5147411;27;46991;-20
2022/03/08 02:32:16;;;;;;;6.05;5.50;;;14.30;28.00;;;;;;5147674;27;46859;-15
2022/03/08 02:34:43;;;;;;;6.57;5.85;;;14.30;28.00;;;;;;5147468;27;48078;-21
2022/03/08 02:37:11;;;;;;;6.25;5.65;;;14.30;28.10;;;;;;5147976;27;47462;-14
2022/03/08 02:39:40;;;;;;;6.07;5.47;;;14.20;28.00;;;;;;5147247;27;47077;-15
2022/03/08 02:42:07;;;;;;;5.45;4.93;;;14.20;28.10;;;;;;5147689;27;47145;-21
2022/03/08 02:44:35;;;;;;;6.03;5.43;;;14.20;28.20;;;;;;5147344;27;46911;-21
2022/03/08 02:47:03;;;;;;;6.30;5.70;;;14.20;28.20;;;;;;5147225;27;46991;-21
2022/03/08 02:49:30;;;;;;;6.13;5.10;;;14.10;28.20;;;;;;5147297;27;46915;-15
2022/03/08 02:51:56;;;;;;;6.20;5.60;;;14.10;28.20;;;;;;5147657;27;46889;-21
2022/03/08 02:54:23;;;;;;;6.80;5.45;;;14.10;28.30;;;;;;5147039;27;47952;-16
2022/03/08 02:56:51;;;;;;;6.72;5.45;;;14.00;28.30;;;;;;5150526;27;46932;-21
2022/03/08 02:59:21;;;;;;;6.10;5.43;;;14.00;28.30;;;;;;5150850;27;47020;-15
2022/03/08 03:01:47;;;;;;;6.30;5.65;;;14.00;28.30;;;;;;5151256;27;46907;-20
2022/03/08 03:04:14;;;;;;;6.30;5.38;;;14.00;28.40;;;;;;5150754;27;49149;-21
2022/03/08 03:06:41;;;;;;;6.53;5.93;;;13.90;28.40;;;;;;5150785;27;47161;-15
2022/03/08 03:09:08;;;;;;;6.10;5.47;;;13.90;28.50;;;;;;5150736;27;46845;-15
2022/03/08 03:11:34;;;;;;;5.57;4.70;;;13.90;28.50;;;;;;5150936;27;46906;-15
2022/03/08 03:14:03;;;;;;;6.23;5.63;;;13.80;28.50;;;;;;5150798;27;48102;-21
2022/03/08 03:16:29;;;;;;;5.47;4.97;;;13.80;28.60;;;;;;5150549;27;46951;-15
2022/03/08 03:18:56;;;;;;;5.68;5.18;;;13.80;28.60;;;;;;5150818;27;46866;-14
2022/03/08 03:21:23;;;;;;;6.15;5.55;;;13.80;28.60;;;;;;5150797;27;47336;-21
2022/03/08 03:23:50;;;;;;;6.20;5.60;;;13.70;28.70;;;;;;5150681;27;46983;-21
2022/03/08 03:26:17;;;;;;;6.77;6.00;;;13.70;28.70;;;;;;5150906;27;47281;-15
2022/03/08 03:28:43;;;;;;;6.70;5.67;;;13.70;28.70;;;;;;5150354;27;46807;-21
2022/03/08 03:31:11;;;;;;;6.78;5.82;;;13.70;28.80;;;;;;5150523;27;46876;-15
2022/03/08 03:33:38;;;;;;;7.37;6.13;;;13.60;28.70;;;;;;5150194;27;47874;-21
2022/03/08 03:36:05;;;;;;;6.40;5.60;;;13.60;28.80;;;;;;5150465;27;46904;-21
2022/03/08 03:38:32;;;;;;;7.17;5.57;;;13.60;28.90;;;;;;5150350;27;46871;-21
2022/03/08 03:40:59;;;;;;;6.87;5.63;;;13.60;28.90;;;;;;5150266;27;46714;-21
2022/03/08 03:43:26;;;;;;;7.40;6.03;;;13.50;28.90;;;;;;5150382;27;49046;-21
2022/03/08 03:45:52;;;;;;;6.80;5.77;;;13.50;28.90;;;;;;5150268;27;47170;-21
2022/03/08 03:48:20;;;;;;;6.90;5.77;;;13.50;28.90;;;;;;5150139;27;46913;-20
2022/03/08 03:50:47;;;;;;;6.90;6.20;;;13.50;28.90;;;;;;5150391;27;47171;-15
2022/03/08 03:53:14;;;;;;;6.43;5.80;;;13.50;29.00;;;;;;5150185;27;46941;-14
2022/03/08 03:55:41;;;;;;;7.27;5.80;;;13.40;29.00;;;;;;5149707;27;46928;-15
2022/03/08 03:58:07;;;;;;;7.20;6.00;;;13.40;29.00;;;;;;5150376;27;46913;-21
2022/03/08 04:00:34;;;;;;;6.70;5.50;;;13.40;29.10;;;;;;5150280;27;46902;-14
2022/03/08 04:03:01;;;;;;;6.37;5.77;;;13.40;29.10;;;;;;5150301;27;46996;-20
2022/03/08 04:05:29;;;;;;;6.47;5.77;;;13.50;29.00;;;;;;5150045;27;47273;-21
2022/03/08 04:07:56;;;;;;;7.20;5.53;;;13.60;28.90;;;;;;5150247;27;46837;-15
2022/03/08 04:10:22;;;;;;;6.03;5.50;;;13.70;28.80;;;;;;5149992;27;46866;-15
2022/03/08 04:12:49;;;;;;;6.82;6.05;;;13.80;28.70;;;;;;5149579;27;47863;-14
2022/03/08 04:15:17;;;;;;;6.37;5.70;;;13.90;28.60;;;;;;5149456;27;47273;-14
2022/03/08 04:17:44;;;;;;;6.30;5.70;;;14.00;28.50;;;;;;5149704;27;46817;-15
2022/03/08 04:20:11;;;;;;;6.57;5.57;;;14.00;28.40;;;;;;5149811;27;47256;-21
2022/03/08 04:22:39;;;;;;;5.77;5.17;;;14.10;28.40;;;;;;5149634;27;48853;-15
2022/03/08 04:25:07;;;;;;;5.80;5.20;;;14.10;28.30;;;;;;5149656;27;46983;-22
2022/03/08 04:27:33;;;;;;;6.73;6.03;;;14.10;28.30;;;;;;5150037;27;46948;-14
2022/03/08 04:30:00;;;;;;;6.70;6.10;;;14.10;28.20;;;;;;5149498;27;46932;-21
2022/03/08 04:32:27;;;;;;;6.37;5.77;;;14.20;28.30;;;;;;5149634;27;48048;-14
2022/03/08 04:34:54;;;;;;;6.07;5.47;;;14.20;28.30;;;;;;5149641;27;46900;-21
2022/03/08 04:37:20;;;;;;;6.27;5.40;;;14.10;28.20;;;;;;5149364;27;46827;-14
2022/03/08 04:39:48;;;;;;;6.50;5.90;;;14.10;28.30;;;;;;5149386;27;47310;-15
2022/03/08 04:42:15;;;;;;;8.00;5.70;;;14.10;28.20;;;;;;5149411;27;49286;-20
2022/03/08 04:44:42;;;;;;;7.07;5.53;;;14.10;28.30;;;;;;5149361;27;47446;-16
2022/03/08 04:47:08;;;;;;;6.87;5.80;;;14.10;28.30;;;;;;5149597;27;46898;-16
2022/03/08 04:49:35;;;;;;;6.53;5.93;;;14.00;28.30;;;;;;5149334;27;47210;-20
2022/03/08 04:52:02;;;;;;;6.83;5.47;;;14.00;28.40;;;;;;5149070;27;47792;-21
2022/03/08 04:54:28;;;;;;;6.93;6.00;;;14.00;28.40;;;;;;5148418;27;47038;-14
2022/03/08 04:56:56;;;;;;;7.57;6.40;;;14.00;28.40;;;;;;5149046;27;46932;-15
2022/03/08 04:59:23;;;;;;;6.80;6.10;;;13.90;28.40;;;;;;5149282;27;46944;-15
2022/03/08 05:01:50;;;;;;;6.40;5.73;;;13.90;28.40;;;;;;5149129;27;48251;-15
2022/03/08 05:04:17;;;;;;;7.47;6.37;;;13.90;28.50;;;;;;5148081;27;46825;-21
2022/03/08 05:06:44;;;;;;;6.77;6.07;;;13.80;28.50;;;;;;5147957;27;46897;-21
2022/03/08 05:09:10;;;;;;;7.63;6.20;;;13.80;28.60;;;;;;5148699;27;46895;-21
2022/03/08 05:11:37;;;;;;;6.17;5.53;;;13.80;28.60;;;;;;5148769;27;47701;-14
2022/03/08 05:14:05;;;;;;;6.27;5.53;;;13.80;28.60;;;;;;5148492;27;46784;-19
2022/03/08 05:16:32;;;;;;;7.05;5.93;;;13.70;28.60;;;;;;5149004;27;46891;-21
2022/03/08 05:18:59;;;;;;;7.30;6.33;;;13.70;28.60;;;;;;5148456;27;47182;-15
2022/03/08 05:21:25;;;;;;;8.13;6.47;;;13.70;28.70;;;;;;5148821;27;46869;-15
2022/03/08 05:23:52;;;;;;;6.33;5.53;;;13.60;28.70;;;;;;5148802;27;47518;-20
2022/03/08 05:26:19;;;;;;;7.97;5.93;;;13.60;28.80;;;;;;5148802;27;46894;-15
2022/03/08 05:28:46;;;;;;;7.17;6.07;;;13.60;28.70;;;;;;5148650;27;47296;-14
2022/03/08 05:31:14;;;;;;;7.40;5.97;;;13.50;28.80;;;;;;5148433;27;48141;-15
2022/03/08 05:33:41;;;;;;;7.17;6.10;;;13.50;28.80;;;;;;5148712;27;46859;-20
2022/03/08 05:36:08;;;;;;;6.87;6.13;;;13.50;28.80;;;;;;5148683;27;46910;-14
2022/03/08 05:38:34;;;;;;;7.43;6.23;;;13.50;28.90;;;;;;5148890;27;46932;-20
2022/03/08 05:41:01;;;;;;;6.80;6.07;;;13.40;29.40;;;;;;5148501;27;49106;-21
2022/03/08 05:43:28;;;;;;;8.17;6.23;;;13.40;28.90;;;;;;5148159;27;46852;-21
2022/03/08 05:45:55;;;;;;;6.63;5.93;;;13.40;29.00;;;;;;5148361;27;47041;-14
2022/03/08 05:48:23;;;;;;;8.37;6.50;;;13.30;28.90;;;;;;5148385;27;46894;-15
2022/03/08 05:50:49;;;;;;;7.83;6.23;;;13.30;29.00;;;;;;5147836;27;48115;-14
2022/03/08 05:53:16;;;;;;;6.73;5.97;;;13.30;29.10;;;;;;5148283;27;46973;-15
2022/03/08 05:55:43;;;;;;;6.63;5.93;;;13.30;29.10;;;;;;5147974;27;46819;-15
2022/03/08 05:58:09;;;;;;;6.73;6.13;;;13.30;29.10;;;;;;5148426;27;47304;-15
2022/03/08 06:00:36;;;;;;;7.50;6.23;;;13.30;29.00;;;;;;5148242;27;48148;-14
2022/03/08 06:03:03;;;;;;;7.13;6.20;;;13.40;28.90;;;;;;5148383;27;47187;-20
2022/03/08 06:05:31;;;;;;;7.53;6.67;;;13.50;28.90;;;;;;5146668;27;46982;-21
2022/03/08 06:07:58;;;;;;;7.53;6.70;;;13.60;28.80;;;;;;5148279;27;47062;-21
2022/03/08 06:10:25;;;;;;;6.07;5.47;;;13.70;28.70;;;;;;5147843;27;48109;-21
2022/03/08 06:12:52;;;;;;;6.60;5.90;;;13.80;28.60;;;;;;5148660;27;47000;-21
2022/03/08 06:15:18;;;;;;;6.93;6.23;;;13.90;28.50;;;;;;5147867;27;46936;-21
2022/03/08 06:17:45;;;;;;;7.10;6.23;;;13.90;28.40;;;;;;5148186;27;46894;-15
2022/03/08 06:20:12;;;;;;;8.03;6.73;;;14.00;28.40;;;;;;5147504;27;48792;-15
2022/03/08 06:22:40;;;;;;;7.60;6.70;;;14.00;28.30;;;;;;5148148;27;46824;-15
2022/03/08 06:25:08;;;;;;;8.80;6.77;;;14.00;28.30;;;;;;5147932;27;47053;-14
2022/03/08 06:27:35;;;;;;;7.77;6.63;;;14.00;28.30;;;;;;5147769;27;46905;-15
2022/03/08 06:30:02;;;;;;;8.23;7.10;;;14.00;28.30;;;;;;5146423;27;48744;-21
2022/03/08 06:32:29;;;;;;;7.10;6.40;;;14.00;28.30;;;;;;5147385;27;47449;-22
2022/03/08 06:34:55;;;;;;;6.93;6.23;;;14.00;28.30;;;;;;5147592;27;46769;-15
2022/03/08 06:37:22;;;;;;;8.27;7.43;;;14.00;28.30;;;;;;5147296;27;47330;-20
2022/03/08 06:39:50;;;;;;;7.33;6.53;;;14.00;28.40;;;;;;5145892;27;48272;-21
2022/03/08 06:42:18;;;;;;;7.37;6.30;;;14.00;28.40;;;;;;5145835;27;46960;-15
2022/03/08 06:44:45;;;;;;;8.17;6.67;;;14.00;28.30;;;;;;5147137;27;46925;-20
2022/03/08 06:47:12;;;;;;;6.50;5.80;;;13.90;28.40;;;;;;5147831;27;46879;-15
2022/03/08 06:49:39;;;;;;;6.57;5.87;;;13.90;28.30;;;;;;5147160;27;48718;-14
2022/03/08 06:52:07;;;;;;;6.63;5.90;;;13.90;28.40;;;;;;5147664;27;47484;-15
2022/03/08 06:54:33;;;;;;;7.00;6.30;;;13.90;28.50;;;;;;5146800;27;46993;-14
2022/03/08 06:57:01;;;;;;;8.07;6.50;;;13.80;28.50;;;;;;5146734;27;47242;-21
2022/03/08 06:59:28;;;;;;;6.93;6.03;;;13.80;28.60;;;;;;5146580;27;48749;-21
2022/03/08 07:01:56;;;;;;;7.20;6.27;;;13.80;28.60;;;;;;5146554;27;46852;-22
2022/03/08 07:04:23;;;;;;;7.90;6.60;;;13.80;28.70;;;;;;5146154;27;47020;-21
2022/03/08 07:06:49;;;;;;;7.10;5.83;;;13.80;28.70;;;;;;5147305;27;46868;-15
2022/03/08 07:09:16;;;;;;;6.83;5.90;;;13.70;28.70;;;;;;5146875;27;48316;-14
2022/03/08 07:11:43;;;;;;;8.50;6.23;;;13.70;28.70;;;;;;5147182;27;47016;-14
2022/03/08 07:14:15;;;;;;;8.07;6.40;;;13.70;28.70;;;;;;5147069;27;46805;-15
2022/03/08 07:16:42;;;;;;;7.30;6.60;;;13.60;28.70;;;;;;5147547;27;47141;-21
2022/03/08 07:19:09;;;;;;;7.20;6.50;;;13.60;28.80;;;;;;5146391;27;48018;-15
2022/03/08 07:21:36;;;;;;;7.20;6.00;;;13.60;28.80;;;;;;5146810;27;47006;-14
2022/03/08 07:24:03;;;;;;;7.00;6.30;;;13.60;28.90;;;;;;5145732;27;46856;-15
2022/03/08 07:26:29;;;;;;;8.30;6.53;;;13.60;28.90;;;;;;5147186;27;46862;-15
2022/03/08 07:28:56;;;;;;;8.43;6.63;;;13.60;28.90;;;;;;5146893;27;48871;-15
2022/03/08 07:31:24;;;;;;;7.40;6.60;;;13.50;28.90;;;;;;5146947;27;46970;-15
2022/03/08 07:33:51;;;;;;;8.23;6.10;;;13.50;28.90;;;;;;5146890;27;47029;-21
2022/03/08 07:36:19;;;;;;;8.37;6.63;;;13.50;29.00;;;;;;5147171;27;47060;-21
2022/03/08 07:38:45;;;;;;;8.30;6.63;;;13.50;28.90;;;;;;5146484;27;48638;-21
2022/03/08 07:41:12;;;;;;;7.43;6.67;;;13.50;29.10;;;;;;5147478;27;46920;-21
2022/03/08 07:43:39;;;;;;;7.90;6.53;;;13.50;29.10;;;;;;5150510;27;46883;-21
2022/03/08 07:46:07;;;;;;;8.20;6.40;;;13.50;29.10;;;;;;5150282;27;46917;-14
2022/03/08 07:48:36;;;;;;;7.93;6.50;;;13.40;29.10;;;;;;5150255;27;47911;-15
2022/03/08 07:51:03;;;;;;;7.40;6.50;;;13.40;29.10;;;;;;5149574;27;46838;-21
2022/03/08 07:53:30;;;;;;;8.10;6.73;;;13.40;29.10;;;;;;5149872;27;46907;-21
2022/03/08 07:55:57;;;;;;;8.27;6.33;;;13.40;29.20;;;;;;5149616;27;46886;-15
2022/03/08 07:58:23;;;;;;;6.97;6.27;;;13.40;29.20;;;;;;5148923;27;49060;-21
2022/03/08 08:00:50;;;;;;;6.77;6.03;;;13.50;29.20;;;;;;5149899;27;46898;-15
2022/03/08 08:03:17;;;;;;;8.73;6.23;;;13.60;29.10;;;;;;5150336;27;46954;-14
2022/03/08 08:05:45;;;;;;;6.23;5.63;;;13.70;29.00;;;;;;5149895;27;47080;-21
2022/03/08 08:08:12;;;;;;;6.67;5.97;;;13.80;28.90;;;;;;5149593;27;48130;-21
2022/03/08 08:10:39;;;;;;;6.57;5.90;;;13.90;28.80;;;;;;5148838;27;46881;-21
2022/03/08 08:13:05;;;;;;;6.33;5.70;;;14.00;28.70;;;;;;5149481;27;46803;-21
2022/03/08 08:15:32;;;;;;;6.77;6.10;;;14.10;28.60;;;;;;5149897;27;47185;-21
2022/03/08 08:17:59;;;;;;;6.57;5.97;;;14.20;28.60;;;;;;5149833;27;47128;-21
2022/03/08 08:20:26;;;;;;;6.47;5.80;;;14.20;28.50;;;;;;5149280;27;46850;-21
2022/03/08 08:22:54;;;;;;;6.57;5.80;;;14.20;28.50;;;;;;5149721;27;46910;-21
2022/03/08 08:25:22;;;;;;;7.63;6.13;;;14.20;28.40;;;;;;5149753;27;46961;-21
2022/03/08 08:27:49;;;;;;;7.13;6.37;;;14.30;28.40;;;;;;5149426;27;48042;-21
2022/03/08 08:30:15;;;;;;;7.40;6.60;;;14.30;28.40;;;;;;5148984;27;47188;-21
2022/03/08 08:32:44;;;;;;;6.93;6.23;;;14.30;28.40;;;;;;5149458;27;46971;-16
2022/03/08 08:35:10;;;;;;;6.77;6.07;;;14.30;28.40;;;;;;5149585;27;47111;-15
2022/03/08 08:37:37;;;;;;;6.90;6.27;;;14.30;28.50;;;;;;5149513;27;47910;-22
2022/03/08 08:40:07;;;;;;;7.05;6.25;;;14.30;28.40;;;;;;5149001;27;46937;-21
2022/03/08 08:42:33;;;;;;;7.43;6.17;;;14.30;28.50;;;;;;5149609;27;46995;-21
2022/03/08 08:45:00;;;;;;;7.60;6.60;;;14.30;28.50;;;;;;5149282;27;46953;-14
2022/03/08 08:47:27;;;;;;;7.10;6.40;;;14.30;28.50;;;;;;5149485;27;49231;-15
2022/03/08 08:49:53;;;;;;;7.28;6.53;;;14.30;28.50;;;;;;5149224;27;47023;-21
2022/03/08 08:52:20;;;;;;;6.40;5.80;;;14.30;28.60;;;;;;5148354;27;46836;-20
2022/03/08 08:54:48;;;;;;;7.27;6.10;;;14.30;28.60;;;;;;5148567;27;47308;-21
2022/03/08 08:57:16;;;;;;;7.20;6.47;;;14.20;28.60;;;;;;5149320;27;48238;-21
2022/03/08 08:59:43;;;;;;;8.47;6.40;;;14.20;28.60;;;;;;5148657;27;46959;-21
2022/03/08 09:02:10;;;;;;;6.53;5.80;;;14.20;28.60;;;;;;5148715;27;46885;-21
2022/03/08 09:04:36;;;;;;;8.53;6.40;;;14.20;28.70;;;;;;5149404;27;46949;-21
2022/03/08 09:07:04;;;;;;;7.20;6.13;;;14.20;28.70;;;;;;5148950;27;49016;-15
2022/03/08 09:09:31;;;;;;;6.70;6.00;;;14.20;28.70;;;;;;5147766;27;47410;-21
2022/03/08 09:11:58;;;;;;;24.13;9.10;;;14.20;28.70;;;;;;5149055;27;46891;-22
2022/03/08 09:14:26;;;;;;;16.50;12.75;;;14.20;29.30;;;;;;5147791;27;47232;-15
2022/03/08 09:16:52;;;;;;;23.23;13.40;;;14.20;28.80;;;;;;5147661;27;49034;-15
2022/03/08 09:19:19;;;;;;;18.80;11.95;;;14.20;28.90;;;;;;5148457;27;46831;-15
2022/03/08 09:21:47;;;;;;;23.67;12.97;;;14.30;29.20;;;;;;5147997;27;46947;-21
2022/03/08 09:24:15;;;;;;;18.30;12.27;;;14.30;28.50;;;;;;5148166;27;46934;-21
2022/03/08 09:26:42;;;;;;;20.77;12.03;;;14.30;28.60;;;;;;5147462;27;48183;-21
2022/03/08 09:29:08;;;;;;;14.90;11.40;;;14.30;28.60;;;;;;5147602;27;47067;-15
2022/03/08 09:31:36;;;;;;;19.70;10.33;;;14.40;28.70;;;;;;5147773;27;46946;-21
2022/03/08 09:34:03;;;;;;;29.87;10.53;;;14.40;29.20;;;;;;5146991;27;46943;-22
2022/03/08 09:36:30;;;;;;;23.13;10.27;;;14.60;30.00;;;;;;5127371;27;48807;-22
2022/03/08 09:38:58;;;;;;;14.90;10.00;;;14.80;30.00;;;;;;5127531;27;47284;-21
2022/03/08 09:41:25;;;;;;;19.00;9.40;;;15.00;30.00;;;;;;5127680;27;46820;-21
2022/03/08 09:43:52;;;;;;;13.35;9.32;;;15.20;29.70;;;;;;5127219;27;47081;-22
2022/03/08 09:46:19;;;;;;;13.10;9.18;;;15.40;29.60;;;;;;5127102;27;47856;-21
2022/03/08 09:48:47;;;;;;;15.32;8.43;;;15.70;30.00;;;;;;5127444;27;46980;-21
2022/03/08 09:51:13;;;;;;;11.73;8.60;;;16.00;30.00;;;;;;5127518;27;46876;-21
2022/03/08 09:53:40;;;;;;;9.30;7.07;;;16.20;29.70;;;;;;5127686;27;47122;-21
2022/03/08 09:56:07;;;;;;;9.65;8.00;;;16.50;29.50;;;;;;5127257;27;47832;-21
2022/03/08 09:58:35;;;;;;;9.43;8.05;;;16.70;29.30;;;;;;5127468;27;47022;-23
2022/03/08 10:01:02;;;;;;;19.63;7.32;;;16.90;28.80;;;;;;5127213;27;46901;-21
2022/03/08 10:03:32;;;;;;;12.57;8.30;;;17.10;29.30;;;;;;5127531;27;47141;-21
2022/03/08 10:06:00;;;;;;;14.32;7.93;;;17.30;28.90;;;;;;5126541;27;48294;-21
2022/03/08 10:08:27;;;;;;;9.75;7.65;;;17.40;28.60;;;;;;5146921;27;48910;-21
2022/03/08 10:10:58;;;;;;;8.13;6.68;;;17.50;28.40;;;;;;5145852;27;46994;-22
2022/03/08 10:13:27;;;;;;;12.57;7.38;;;17.70;28.80;;;;;;5146419;27;47072;-22
2022/03/08 10:16:07;;;;;;;9.13;7.13;;;17.80;28.30;;;;;;5146607;27;46959;-21
2022/03/08 10:18:34;;;;;;;10.50;7.18;;;18.00;28.40;;;;;;5147568;27;46895;-22
2022/03/08 10:21:03;;;;;;;13.10;7.03;;;18.10;28.60;;;;;;5146955;27;46959;-22
2022/03/08 10:23:30;;;;;;;10.95;6.80;;;18.30;28.20;;;;;;5147971;27;46872;-24
2022/03/08 10:26:03;;;;;;;10.93;6.97;;;18.30;27.80;;;;;;5145955;27;47920;-23
2022/03/08 10:28:31;;;;;;;9.82;6.63;;;18.50;28.10;;;;;;5147626;27;47010;-24
2022/03/08 10:30:57;;;;;;;9.98;6.50;;;18.60;28.30;;;;;;5147391;27;47127;-23
2022/03/08 10:33:34;;;;;;;7.47;6.43;;;18.70;28.10;;;;;;5147362;27;46910;-21
2022/03/08 10:36:02;;;;;;;10.85;6.45;;;18.90;27.70;;;;;;5147376;27;47045;-21
2022/03/08 10:38:28;;;;;;;8.45;6.43;;;18.90;27.50;;;;;;5147152;27;46935;-23
2022/03/08 10:40:55;;;;;;;9.27;6.43;;;19.00;27.60;;;;;;5147370;27;46995;-24
2022/03/08 10:43:22;;;;;;;10.38;6.55;;;19.00;27.40;;;;;;5147534;27;47284;-23
2022/03/08 10:45:50;;;;;;;8.63;6.32;;;19.10;27.30;;;;;;5147124;27;47079;-22
2022/03/08 10:48:18;;;;;;;10.07;6.13;;;19.20;27.00;;;;;;5147058;27;47024;-21
2022/03/08 10:50:46;;;;;;;10.45;6.65;;;19.30;27.30;;;;;;5147258;27;46813;-24
2022/03/08 10:53:14;;;;;;;12.75;10.07;;;19.30;27.00;;;;;;5147258;27;47040;-24
2022/03/08 10:55:46;;;;;;;18.30;11.23;;;19.40;26.40;;;;;;5146915;27;47042;-22
2022/03/08 10:58:14;;;;;;;17.58;11.57;;;19.40;25.50;;;;;;5147277;27;46793;-21
2022/03/08 11:00:42;;;;;;;13.07;11.20;;;19.40;25.30;;;;;;5146885;27;46863;-21
2022/03/08 11:03:09;;;;;;;10.38;9.27;;;19.50;25.60;;;;;;5147196;27;47188;-21
2022/03/08 11:05:37;;;;;;;13.32;9.00;;;19.60;25.90;;;;;;5146852;27;46847;-23
2022/03/08 11:08:05;;;;;;;16.33;8.90;;;19.70;25.70;;;;;;5147142;27;46854;-21
2022/03/08 11:10:33;;;;;;;10.45;8.15;;;19.80;26.00;;;;;;5146623;27;46961;-14
2022/03/08 11:13:00;;;;;;;11.15;7.55;;;19.90;26.00;;;;;;5147340;27;47128;-17
2022/03/08 11:15:28;;;;;;;16.25;7.93;;;20.00;26.10;;;;;;5146957;27;48024;-16
2022/03/08 11:17:55;;;;;;;12.27;7.60;;;20.10;25.80;;;;;;5150200;27;47139;-15
2022/03/08 11:20:23;;;;;;;11.68;7.40;;;20.30;25.50;;;;;;5150511;27;46853;-16
2022/03/08 11:22:51;;;;;;;9.38;6.88;;;20.40;26.00;;;;;;5150872;27;46993;-14
2022/03/08 11:25:18;;;;;;;8.40;6.53;;;20.40;25.30;;;;;;5150008;27;47029;-15
2022/03/08 11:27:47;;;;;;;11.43;7.13;;;20.50;25.60;;;;;;5150156;27;46880;-15
2022/03/08 11:30:15;;;;;;;10.65;6.53;;;20.60;25.50;;;;;;5149213;27;46804;-15
2022/03/08 11:32:46;;;;;;;7.78;6.10;;;20.70;25.90;;;;;;5150762;27;46887;-15
2022/03/08 11:35:14;;;;;;;12.45;6.88;;;20.90;26.10;;;;;;5150049;27;47835;-16
2022/03/08 11:37:42;;;;;;;9.60;6.60;;;21.10;25.10;;;;;;5150555;27;46975;-16
2022/03/08 11:40:09;;;;;;;12.45;7.45;;;21.20;25.60;;;;;;5150095;27;46846;-15
2022/03/08 11:42:39;;;;;;;9.63;6.18;;;21.40;25.30;;;;;;5150562;27;47134;-15
2022/03/08 11:45:11;;;;;;;9.98;6.03;;;21.60;25.20;;;;;;5149743;27;47910;-15
2022/03/08 11:47:40;;;;;;;10.70;5.68;;;21.80;25.20;;;;;;5150399;27;46851;-15
2022/03/08 11:50:07;;;;;;;9.13;5.68;;;22.10;25.70;;;;;;5149969;27;46834;-16
2022/03/08 11:52:35;;;;;;;14.95;5.50;;;22.40;25.70;;;;;;5149781;27;47200;-17
2022/03/08 11:55:06;;;;;;;8.52;5.47;;;22.60;25.70;;;;;;5149814;27;48257;-16
2022/03/08 11:57:55;;;;;;;7.43;4.90;;;22.90;26.00;;;;;;5149909;27;47207;-15
2022/03/08 12:00:24;;;;;;;8.48;5.18;;;23.20;26.20;;;;;;5138706;27;46869;-16
2022/03/08 12:02:53;;;;;;;6.50;5.57;;;23.40;26.30;;;;;;5149971;27;46829;-16
2022/03/08 12:05:48;;;;;;;5.63;4.80;;;23.50;26.00;;;;;;5149302;27;49019;-15
2022/03/08 12:08:41;;;;;;;6.95;5.07;;;23.70;25.50;;;;;;5149670;27;46853;-18
2022/03/08 12:11:14;;;;;;;11.65;7.68;;;23.90;25.80;;;;;;5149638;27;46755;-16
2022/03/08 12:13:42;;;;;;;13.77;9.40;;;23.90;22.80;;;;;;5149735;27;46891;-14
2022/03/08 12:16:14;;;;;;;14.20;9.82;;;23.60;22.30;;;;;;5149799;27;48284;-14
2022/03/08 12:18:41;;;;;;;9.68;8.15;;;23.50;22.20;;;;;;5149630;27;47255;-15
2022/03/08 12:21:31;;;;;;;11.48;8.57;;;23.50;23.40;;;;;;5149334;27;46896;-16
2022/03/08 12:23:59;;;;;;;10.07;7.38;;;23.40;22.60;;;;;;5149873;27;47132;-15
2022/03/08 12:26:26;;;;;;;14.13;8.80;;;23.20;22.80;;;;;;5149492;27;46906;-15
2022/03/08 12:29:07;;;;;;;12.18;10.57;;;23.10;23.10;;;;;;5137799;27;47306;-15
2022/03/08 12:32:04;;;;;;;17.55;11.20;;;22.90;22.40;;;;;;5149104;27;46902;-14
2022/03/08 12:34:39;;;;;;;14.80;12.63;;;22.80;22.10;;;;;;5128229;27;46872;-15
2022/03/08 12:37:07;;;;;;;15.23;13.65;;;22.60;21.40;;;;;;5129206;27;47906;-13
2022/03/08 12:39:52;;;;;;;17.83;14.10;;;22.50;21.10;;;;;;5130296;27;47175;-15
2022/03/08 12:42:24;;;;;;;15.93;14.15;;;22.40;21.10;;;;;;5149116;27;46862;-15
2022/03/08 12:44:56;;;;;;;16.38;13.25;;;22.30;21.30;;;;;;5149208;27;46969;-14
2022/03/08 12:47:23;;;;;;;21.33;12.57;;;22.30;21.50;;;;;;5147864;27;47056;-16
2022/03/08 12:49:52;;;;;;;15.88;14.13;;;22.40;21.00;;;;;;5138848;27;46771;-15